Time;durP1;ratioP1;P1;durP2;ratioP2;P2;SDS_P1;SDS_P2;PMS_P1;PMS_P2;Temp;Humidity;BMP_temperature;BMP_pressure;BME280_temperature;BME280_humidity;BME280_pressure;Samples;Min_cycle;Max_cycle;Signal;HPM_P1;HPM_P2
2021/04/24 00:00:13;;;;;;;11.93;6.80;;;7.60;94.40;;;;;;5087881;27;20482;-85
2021/04/24 00:02:41;;;;;;;11.90;7.60;;;7.60;94.00;;;;;;5080664;27;20931;-85
2021/04/24 00:05:13;;;;;;;9.93;7.23;;;7.60;94.10;;;;;;5079022;27;20469;-83
2021/04/24 00:07:41;;;;;;;16.03;7.17;;;7.60;94.40;;;;;;5082923;27;21053;-86
2021/04/24 00:10:10;;;;;;;17.93;8.00;;;7.60;93.80;;;;;;5074885;27;20464;-86
2021/04/24 00:12:37;;;;;;;13.10;8.37;;;7.50;94.10;;;;;;5066278;27;20840;-86
2021/04/24 00:15:06;;;;;;;16.67;7.87;;;7.50;93.90;;;;;;5080348;27;20487;-85
2021/04/24 00:17:33;;;;;;;13.47;7.30;;;7.50;94.10;;;;;;5080431;27;20838;-84
2021/04/24 00:20:00;;;;;;;15.73;7.83;;;7.50;94.40;;;;;;5074627;27;20504;-86
2021/04/24 00:22:30;;;;;;;14.73;7.70;;;7.50;94.20;;;;;;5063096;27;20480;-88
2021/04/24 00:24:59;;;;;;;15.10;8.63;;;7.60;93.70;;;;;;5077429;27;20469;-85
2021/04/24 00:27:26;;;;;;;13.10;7.80;;;7.60;93.60;;;;;;5077853;27;20531;-85
2021/04/24 00:29:53;;;;;;;12.77;7.77;;;7.50;93.90;;;;;;5072571;27;20853;-85
2021/04/24 00:32:20;;;;;;;16.13;7.47;;;7.50;93.80;;;;;;5082122;27;20469;-85
2021/04/24 00:34:47;;;;;;;16.87;8.57;;;7.50;93.90;;;;;;5078774;27;20503;-86
2021/04/24 00:37:14;;;;;;;15.47;8.10;;;7.40;93.80;;;;;;5076849;27;20530;-87
2021/04/24 00:39:41;;;;;;;15.60;8.20;;;7.40;94.30;;;;;;5072295;27;20477;-86
2021/04/24 00:42:09;;;;;;;13.00;8.60;;;7.40;94.40;;;;;;5101300;27;20907;-85
2021/04/24 00:44:36;;;;;;;15.00;7.80;;;7.40;94.30;;;;;;5072682;27;20547;-85
2021/04/24 00:47:03;;;;;;;21.53;8.33;;;7.30;94.40;;;;;;5072638;27;20499;-85
2021/04/24 00:49:30;;;;;;;10.83;8.00;;;7.30;94.40;;;;;;5079683;27;20492;-83
2021/04/24 00:51:57;;;;;;;20.27;7.43;;;7.30;94.40;;;;;;5066288;27;20479;-86
2021/04/24 00:54:25;;;;;;;13.40;8.90;;;7.20;94.50;;;;;;5070458;27;20533;-86
2021/04/24 00:56:52;;;;;;;13.53;8.70;;;7.20;94.80;;;;;;5072675;27;20524;-85
2021/04/24 00:59:20;;;;;;;20.33;8.63;;;7.10;95.00;;;;;;5083237;27;20469;-84
2021/04/24 01:01:47;;;;;;;14.87;7.90;;;7.10;95.10;;;;;;5088361;27;20467;-85
2021/04/24 01:04:14;;;;;;;18.73;8.83;;;7.10;95.10;;;;;;5088119;27;20494;-87
2021/04/24 01:06:41;;;;;;;16.27;8.90;;;7.00;95.30;;;;;;5074356;27;20863;-86
2021/04/24 01:09:08;;;;;;;15.13;9.37;;;7.00;95.40;;;;;;5067913;27;20468;-83
2021/04/24 01:11:35;;;;;;;15.80;9.00;;;7.00;95.50;;;;;;5080054;27;21466;-85
2021/04/24 01:14:02;;;;;;;14.50;8.60;;;7.00;95.90;;;;;;5066993;27;20483;-85
2021/04/24 01:16:30;;;;;;;14.10;8.27;;;7.00;95.80;;;;;;5074464;27;20567;-86
2021/04/24 01:18:57;;;;;;;14.60;8.67;;;7.00;95.90;;;;;;5081666;27;20482;-85
2021/04/24 01:21:24;;;;;;;14.80;9.17;;;7.00;96.00;;;;;;5082941;27;20856;-85
2021/04/24 01:23:52;;;;;;;14.13;8.13;;;7.10;95.60;;;;;;5071632;27;20476;-83
2021/04/24 01:26:20;;;;;;;17.70;9.07;;;7.10;95.60;;;;;;5070209;27;20481;-87
2021/04/24 01:28:47;;;;;;;16.90;8.63;;;7.00;95.50;;;;;;5095204;27;20642;-85
2021/04/24 01:31:15;;;;;;;19.23;9.30;;;7.00;95.90;;;;;;5071043;27;20537;-85
2021/04/24 01:33:43;;;;;;;18.07;9.53;;;6.90;96.00;;;;;;5077927;27;20472;-87
2021/04/24 01:36:12;;;;;;;16.03;8.67;;;6.90;96.30;;;;;;5068587;27;20462;-84
2021/04/24 01:38:39;;;;;;;17.67;9.13;;;6.90;96.60;;;;;;5080709;27;20476;-86
2021/04/24 01:41:08;;;;;;;15.30;9.20;;;6.80;96.50;;;;;;5078574;27;20484;-83
2021/04/24 01:43:35;;;;;;;17.57;9.10;;;6.80;97.00;;;;;;5078025;27;20927;-83
2021/04/24 01:46:03;;;;;;;14.40;8.10;;;6.80;97.10;;;;;;5088902;27;20480;-84
2021/04/24 01:48:30;;;;;;;15.60;8.83;;;6.80;97.40;;;;;;5078718;27;20472;-85
2021/04/24 01:50:57;;;;;;;20.27;10.40;;;6.70;97.60;;;;;;5077901;27;20493;-83
2021/04/24 01:53:25;;;;;;;18.53;9.40;;;6.70;97.80;;;;;;5075807;27;20478;-87
2021/04/24 01:55:52;;;;;;;19.53;9.10;;;6.70;97.70;;;;;;5070426;27;20823;-84
2021/04/24 01:58:22;;;;;;;16.43;9.70;;;6.70;97.60;;;;;;5078943;27;20483;-85
2021/04/24 02:00:53;;;;;;;14.33;9.67;;;6.70;97.60;;;;;;5069143;28;20553;-86
2021/04/24 02:03:20;;;;;;;20.90;10.10;;;6.60;97.80;;;;;;5084639;28;20553;-83
2021/04/24 02:05:48;;;;;;;13.17;9.20;;;6.60;97.80;;;;;;5086155;28;20552;-85
2021/04/24 02:08:17;;;;;;;15.23;9.50;;;6.60;98.00;;;;;;5084419;28;20488;-85
2021/04/24 02:10:48;;;;;;;15.57;8.10;;;6.60;98.20;;;;;;5077789;28;20477;-84
2021/04/24 02:13:18;;;;;;;16.40;8.27;;;6.60;98.00;;;;;;5084984;28;20491;-86
2021/04/24 02:15:46;;;;;;;24.03;9.93;;;6.60;97.80;;;;;;5082073;27;20485;-86
2021/04/24 02:18:13;;;;;;;17.57;9.43;;;6.60;97.80;;;;;;5079834;27;20476;-85
2021/04/24 02:20:43;;;;;;;20.90;10.20;;;6.50;98.10;;;;;;5081420;27;20529;-85
2021/04/24 02:23:12;;;;;;;16.83;9.40;;;6.50;98.20;;;;;;5080248;27;20471;-85
2021/04/24 02:25:39;;;;;;;23.83;9.20;;;6.50;98.10;;;;;;5082006;27;20493;-86
2021/04/24 02:28:06;;;;;;;15.63;9.63;;;6.60;98.20;;;;;;5069140;27;20490;-84
2021/04/24 02:30:34;;;;;;;13.23;9.70;;;6.50;98.10;;;;;;5067346;27;20471;-84
2021/04/24 02:33:03;;;;;;;18.33;9.17;;;6.50;98.20;;;;;;5080838;27;20583;-83
2021/04/24 02:35:39;;;;;;;16.00;10.07;;;6.50;98.30;;;;;;5078633;27;20541;-83
2021/04/24 02:38:06;;;;;;;16.50;10.03;;;6.50;98.30;;;;;;5074538;27;20471;-84
2021/04/24 02:40:34;;;;;;;19.37;8.83;;;6.40;98.30;;;;;;5069456;27;20483;-85
2021/04/24 02:43:01;;;;;;;14.13;8.67;;;6.40;98.70;;;;;;5065938;27;20479;-83
2021/04/24 02:45:28;;;;;;;14.17;9.23;;;6.30;99.00;;;;;;5096151;27;20474;-84
2021/04/24 02:47:55;;;;;;;20.27;9.27;;;6.30;99.10;;;;;;5089147;27;20573;-85
2021/04/24 02:50:23;;;;;;;22.83;10.53;;;6.30;99.30;;;;;;5074106;27;20482;-86
2021/04/24 02:52:50;;;;;;;15.57;9.33;;;6.30;99.10;;;;;;5074152;27;20483;-86
2021/04/24 02:55:18;;;;;;;16.13;9.63;;;6.20;99.40;;;;;;5088627;27;20480;-85
2021/04/24 02:57:45;;;;;;;19.80;9.53;;;6.20;99.50;;;;;;5072335;27;20479;-84
2021/04/24 03:00:15;;;;;;;20.87;10.03;;;6.10;99.80;;;;;;5080540;27;21033;-87
2021/04/24 03:02:42;;;;;;;17.50;10.73;;;6.10;99.80;;;;;;5090516;27;20845;-84
2021/04/24 03:05:11;;;;;;;17.10;9.70;;;6.10;99.80;;;;;;5073707;28;20471;-84
2021/04/24 03:07:39;;;;;;;16.90;10.27;;;6.10;99.80;;;;;;5074864;27;20469;-84
2021/04/24 03:10:08;;;;;;;19.07;10.50;;;6.00;99.80;;;;;;5068367;27;20481;-83
2021/04/24 03:12:35;;;;;;;17.23;9.63;;;6.00;99.80;;;;;;5068272;27;20476;-84
2021/04/24 03:15:03;;;;;;;19.03;11.63;;;5.90;99.80;;;;;;5076170;27;20829;-85
2021/04/24 03:17:30;;;;;;;18.50;10.53;;;5.80;99.80;;;;;;5080704;27;20473;-85
2021/04/24 03:19:57;;;;;;;18.50;11.07;;;5.80;99.80;;;;;;5089189;27;20494;-83
2021/04/24 03:22:24;;;;;;;17.97;10.70;;;5.80;99.80;;;;;;5071592;27;20471;-84
2021/04/24 03:24:52;;;;;;;19.23;10.30;;;5.70;99.80;;;;;;5069258;27;20459;-83
2021/04/24 03:27:19;;;;;;;20.43;10.33;;;5.80;99.80;;;;;;5071490;27;20469;-83
2021/04/24 03:29:46;;;;;;;20.40;10.80;;;5.80;99.80;;;;;;5079599;27;20471;-84
2021/04/24 03:32:13;;;;;;;17.70;11.10;;;5.80;99.80;;;;;;5080464;27;20491;-86
2021/04/24 03:34:40;;;;;;;16.90;10.23;;;5.80;99.80;;;;;;5080732;27;20475;-85
2021/04/24 03:37:07;;;;;;;17.33;10.03;;;5.80;99.80;;;;;;5085847;27;20455;-86
2021/04/24 03:39:34;;;;;;;18.87;10.10;;;5.70;99.80;;;;;;5079462;27;20467;-84
2021/04/24 03:42:02;;;;;;;21.57;10.90;;;5.70;99.80;;;;;;5068084;27;20476;-85
2021/04/24 03:44:29;;;;;;;18.17;10.60;;;5.70;99.80;;;;;;5077133;27;21010;-86
2021/04/24 03:46:56;;;;;;;25.00;11.33;;;5.70;99.80;;;;;;5075135;27;20463;-83
2021/04/24 03:49:23;;;;;;;13.53;10.43;;;5.70;99.80;;;;;;5072943;27;20473;-85
2021/04/24 03:51:50;;;;;;;21.70;10.20;;;5.60;99.80;;;;;;5076023;27;20479;-84
2021/04/24 03:54:17;;;;;;;17.43;10.07;;;5.60;99.80;;;;;;5082821;27;20491;-85
2021/04/24 03:56:44;;;;;;;19.70;10.20;;;5.60;99.80;;;;;;5076589;27;20488;-84
2021/04/24 03:59:12;;;;;;;19.63;11.10;;;5.50;99.80;;;;;;5082687;27;22132;-86
2021/04/24 04:01:39;;;;;;;17.10;10.47;;;5.40;99.80;;;;;;5096244;27;20916;-82
2021/04/24 04:04:06;;;;;;;22.60;12.27;;;5.40;99.80;;;;;;5079265;27;21040;-85
2021/04/24 04:06:33;;;;;;;16.17;9.67;;;5.40;99.80;;;;;;5077478;27;20476;-85
2021/04/24 04:09:00;;;;;;;18.57;9.77;;;5.30;99.80;;;;;;5080978;27;20526;-83
2021/04/24 04:11:27;;;;;;;23.07;10.90;;;5.20;99.80;;;;;;5078111;27;20557;-84
2021/04/24 04:13:56;;;;;;;18.83;11.23;;;5.20;99.80;;;;;;5077944;27;20847;-85
2021/04/24 04:16:25;;;;;;;22.33;11.00;;;5.20;99.80;;;;;;5080059;27;20460;-85
2021/04/24 04:18:52;;;;;;;17.67;10.50;;;5.20;99.80;;;;;;5079987;27;20470;-85
2021/04/24 04:21:20;;;;;;;21.17;11.60;;;5.20;99.80;;;;;;5085448;27;20473;-85
2021/04/24 04:23:47;;;;;;;22.90;11.97;;;5.20;99.80;;;;;;5074907;27;20471;-83
2021/04/24 04:26:16;;;;;;;22.77;10.93;;;5.20;99.80;;;;;;5081025;27;20474;-85
2021/04/24 04:28:43;;;;;;;19.97;10.27;;;5.20;99.80;;;;;;5075348;27;20564;-84
2021/04/24 04:31:10;;;;;;;20.63;11.30;;;5.20;99.80;;;;;;5071905;27;20801;-84
2021/04/24 04:33:38;;;;;;;18.93;9.83;;;5.20;99.80;;;;;;5078556;27;20480;-82
2021/04/24 04:36:06;;;;;;;18.37;10.97;;;5.20;99.80;;;;;;5076105;27;20470;-84
2021/04/24 04:38:33;;;;;;;18.50;10.27;;;5.20;99.80;;;;;;5062561;27;20458;-86
2021/04/24 04:41:00;;;;;;;15.70;10.03;;;5.20;99.80;;;;;;5084304;27;21361;-84
2021/04/24 04:43:27;;;;;;;18.83;10.67;;;5.20;99.80;;;;;;5099829;27;20492;-84
2021/04/24 04:45:54;;;;;;;18.50;10.27;;;5.20;99.80;;;;;;5080147;27;20481;-85
2021/04/24 04:48:21;;;;;;;20.50;11.00;;;5.20;99.80;;;;;;5091533;27;20484;-84
2021/04/24 04:50:49;;;;;;;18.60;10.00;;;5.20;99.80;;;;;;5082736;27;20564;-86
2021/04/24 04:53:16;;;;;;;17.37;10.00;;;5.30;99.80;;;;;;5071375;27;20485;-84
2021/04/24 04:56:03;;;;;;;16.60;10.23;;;5.30;99.80;;;;;;5068290;27;20471;-85
2021/04/24 04:58:30;;;;;;;21.23;10.90;;;5.40;99.80;;;;;;5067239;27;20466;-85
2021/04/24 05:00:57;;;;;;;16.87;10.93;;;5.40;99.80;;;;;;5097091;27;20851;-85
2021/04/24 05:03:24;;;;;;;14.80;9.73;;;5.30;99.80;;;;;;5103029;27;20472;-83
2021/04/24 05:05:52;;;;;;;16.07;10.73;;;5.30;99.80;;;;;;5098294;27;21057;-85
2021/04/24 05:08:19;;;;;;;18.27;10.43;;;5.40;99.80;;;;;;5093810;27;20482;-84
2021/04/24 05:10:46;;;;;;;20.80;11.23;;;5.40;99.80;;;;;;5085030;27;20509;-82
2021/04/24 05:13:13;;;;;;;21.50;12.67;;;5.40;99.80;;;;;;5072657;27;20483;-84
2021/04/24 05:15:40;;;;;;;15.43;9.50;;;5.40;99.80;;;;;;5076872;27;20494;-84
2021/04/24 05:18:07;;;;;;;15.40;10.03;;;5.40;99.80;;;;;;5078076;27;20518;-85
2021/04/24 05:20:35;;;;;;;19.30;11.47;;;5.50;99.80;;;;;;5084496;27;20474;-84
2021/04/24 05:23:03;;;;;;;18.67;10.93;;;5.50;99.80;;;;;;5079391;27;20471;-84
2021/04/24 05:25:30;;;;;;;20.37;11.93;;;5.60;99.80;;;;;;5095914;27;20480;-83
2021/04/24 05:27:58;;;;;;;19.10;10.33;;;5.60;99.80;;;;;;5078534;27;20499;-85
2021/04/24 05:30:24;;;;;;;26.10;9.77;;;5.60;99.80;;;;;;5080353;27;20493;-83
2021/04/24 05:32:51;;;;;;;19.40;10.77;;;5.70;99.80;;;;;;5107622;27;20568;-86
2021/04/24 05:35:26;;;;;;;17.63;9.93;;;5.80;99.80;;;;;;5067417;27;20484;-84
2021/04/24 05:37:53;;;;;;;18.30;10.73;;;5.80;99.80;;;;;;5074829;27;21019;-84
2021/04/24 05:40:21;;;;;;;16.40;10.20;;;5.90;99.80;;;;;;5074498;27;20460;-84
2021/04/24 05:42:48;;;;;;;21.87;11.47;;;6.00;99.80;;;;;;5071917;27;20470;-85
2021/04/24 05:45:16;;;;;;;14.87;9.37;;;6.00;99.80;;;;;;5065903;27;20471;-82
2021/04/24 05:47:46;;;;;;;21.27;10.43;;;6.10;99.80;;;;;;5080422;27;20471;-86
2021/04/24 05:50:16;;;;;;;16.87;10.00;;;6.20;99.80;;;;;;5082954;27;20501;-86
2021/04/24 05:52:43;;;;;;;18.50;11.10;;;6.30;99.80;;;;;;5081573;27;20464;-83
2021/04/24 05:55:12;;;;;;;21.30;10.67;;;6.30;99.80;;;;;;5077907;27;20455;-85
2021/04/24 05:57:40;;;;;;;18.53;11.03;;;6.40;99.80;;;;;;5113062;27;20586;-85
2021/04/24 06:00:10;;;;;;;16.73;10.37;;;6.50;99.80;;;;;;5085720;27;20545;-86
2021/04/24 06:02:37;;;;;;;21.97;11.00;;;6.60;99.80;;;;;;5100494;27;20467;-85
2021/04/24 06:05:08;;;;;;;15.63;9.97;;;6.60;99.80;;;;;;5088379;27;20558;-85
2021/04/24 06:07:35;;;;;;;22.20;11.07;;;6.80;99.80;;;;;;5083629;27;20483;-85
2021/04/24 06:10:03;;;;;;;23.93;12.30;;;7.00;99.80;;;;;;5079072;27;20473;-85
2021/04/24 06:12:30;;;;;;;18.40;9.50;;;7.00;99.50;;;;;;5082656;27;20557;-85
2021/04/24 06:14:58;;;;;;;20.87;9.73;;;7.10;98.60;;;;;;5072999;27;20459;-84
2021/04/24 06:17:26;;;;;;;21.83;10.43;;;7.10;98.60;;;;;;5073912;27;20479;-84
2021/04/24 06:19:53;;;;;;;15.20;9.87;;;7.10;98.10;;;;;;5083867;27;20466;-84
2021/04/24 06:22:20;;;;;;;18.97;10.57;;;7.20;98.60;;;;;;5092401;27;20451;-85
2021/04/24 06:24:47;;;;;;;17.43;11.60;;;7.20;99.00;;;;;;5073536;27;20491;-85
2021/04/24 06:27:15;;;;;;;15.70;10.40;;;7.40;98.10;;;;;;5083461;27;20477;-85
2021/04/24 06:29:42;;;;;;;19.23;10.90;;;7.40;98.10;;;;;;5082376;27;20527;-84
2021/04/24 06:32:10;;;;;;;16.20;9.33;;;7.40;98.10;;;;;;5084780;27;20566;-87
2021/04/24 06:34:37;;;;;;;20.50;11.53;;;7.50;96.60;;;;;;5091208;27;20484;-86
2021/04/24 06:37:05;;;;;;;20.00;9.90;;;7.30;97.90;;;;;;5088064;27;20986;-85
2021/04/24 06:39:33;;;;;;;22.40;10.03;;;7.30;98.40;;;;;;5070304;27;20820;-87
2021/04/24 06:42:00;;;;;;;20.30;9.90;;;7.40;98.30;;;;;;5086619;27;20480;-87
2021/04/24 06:44:27;;;;;;;19.00;10.10;;;7.50;97.50;;;;;;5093212;27;20471;-84
2021/04/24 06:46:54;;;;;;;19.60;9.80;;;7.40;97.50;;;;;;5075524;27;20482;-85
2021/04/24 06:49:22;;;;;;;19.47;9.33;;;7.30;97.90;;;;;;5078154;27;20474;-84
2021/04/24 06:51:49;;;;;;;18.10;9.20;;;7.40;98.50;;;;;;5085301;27;20464;-85
2021/04/24 06:54:16;;;;;;;21.97;11.10;;;7.50;98.10;;;;;;5090121;27;20479;-85
2021/04/24 06:56:44;;;;;;;17.13;9.40;;;7.50;97.80;;;;;;5081663;27;20473;-85
2021/04/24 06:59:11;;;;;;;19.73;10.37;;;7.70;97.60;;;;;;5075130;27;20472;-83
2021/04/24 07:01:38;;;;;;;15.13;9.40;;;7.90;97.30;;;;;;5090372;27;20474;-85
2021/04/24 07:04:05;;;;;;;18.23;10.17;;;8.00;96.90;;;;;;5099467;27;20483;-84
2021/04/24 07:06:33;;;;;;;16.83;8.30;;;8.10;96.10;;;;;;5088635;27;20487;-86
2021/04/24 07:09:00;;;;;;;12.70;7.77;;;8.20;96.00;;;;;;5085448;27;21060;-84
2021/04/24 07:11:27;;;;;;;20.07;7.87;;;8.30;94.30;;;;;;5084185;27;20561;-84
2021/04/24 07:13:54;;;;;;;19.23;8.67;;;8.40;94.30;;;;;;5081431;27;20460;-84
2021/04/24 07:16:21;;;;;;;12.33;7.83;;;8.30;92.80;;;;;;5101565;27;21227;-84
2021/04/24 07:18:48;;;;;;;15.70;7.90;;;8.30;93.90;;;;;;5097833;27;20564;-84
2021/04/24 07:21:15;;;;;;;13.63;7.87;;;8.40;93.00;;;;;;5101250;27;20466;-84
2021/04/24 07:23:43;;;;;;;15.33;7.80;;;8.30;92.30;;;;;;5077073;28;20465;-87
2021/04/24 07:26:11;;;;;;;16.70;7.23;;;8.40;92.90;;;;;;5078746;27;20481;-85
2021/04/24 07:28:38;;;;;;;14.10;8.13;;;8.60;93.80;;;;;;5077736;27;20472;-85
2021/04/24 07:31:06;;;;;;;11.77;6.90;;;8.80;92.00;;;;;;5097899;27;20455;-85
2021/04/24 07:33:33;;;;;;;10.10;7.20;;;8.80;91.30;;;;;;5086042;27;20473;-85
2021/04/24 07:36:00;;;;;;;11.07;6.67;;;8.90;90.70;;;;;;5088388;27;20486;-86
2021/04/24 07:38:28;;;;;;;13.30;6.70;;;9.00;90.40;;;;;;5083298;27;20478;-84
2021/04/24 07:40:55;;;;;;;14.43;6.20;;;9.00;89.60;;;;;;5095163;27;20479;-85
2021/04/24 07:43:22;;;;;;;14.63;6.93;;;9.10;90.20;;;;;;5094171;27;21038;-85
2021/04/24 07:45:49;;;;;;;14.13;6.17;;;9.40;89.60;;;;;;5089683;27;20557;-85
2021/04/24 07:48:18;;;;;;;11.80;6.47;;;9.30;87.80;;;;;;5087871;27;20476;-85
2021/04/24 07:50:46;;;;;;;13.47;6.60;;;9.30;88.50;;;;;;5086704;27;20477;-85
2021/04/24 07:53:13;;;;;;;11.23;6.23;;;9.40;88.00;;;;;;5081178;27;20505;-86
2021/04/24 07:55:40;;;;;;;12.00;5.80;;;9.60;88.40;;;;;;5090328;27;20544;-85
2021/04/24 07:58:08;;;;;;;15.80;6.90;;;9.60;86.80;;;;;;5064044;27;20557;-85
2021/04/24 08:00:36;;;;;;;16.40;6.80;;;9.60;86.30;;;;;;5101159;27;21262;-86
2021/04/24 08:03:04;;;;;;;11.80;4.90;;;9.50;87.00;;;;;;5112777;27;20514;-85
2021/04/24 08:05:31;;;;;;;11.17;6.03;;;9.50;87.10;;;;;;5091090;27;20478;-85
2021/04/24 08:08:00;;;;;;;9.80;5.37;;;9.60;88.30;;;;;;5094365;28;20507;-85
2021/04/24 08:10:28;;;;;;;7.20;4.57;;;9.70;86.40;;;;;;5094872;27;20481;-83
2021/04/24 08:12:57;;;;;;;11.43;5.50;;;9.80;85.80;;;;;;5083726;27;20565;-85
2021/04/24 08:15:26;;;;;;;8.90;5.20;;;9.80;85.80;;;;;;5092753;27;20468;-87
2021/04/24 08:17:54;;;;;;;9.47;5.33;;;9.90;85.30;;;;;;5092992;27;20473;-87
2021/04/24 08:20:24;;;;;;;10.37;5.07;;;9.80;85.60;;;;;;5110477;27;20465;-87
2021/04/24 08:22:52;;;;;;;10.37;5.37;;;10.00;85.70;;;;;;5118335;27;20523;-86
2021/04/24 08:25:22;;;;;;;6.87;4.13;;;10.10;84.00;;;;;;5114746;27;20472;-87
2021/04/24 08:27:52;;;;;;;7.80;5.13;;;10.20;84.70;;;;;;5113498;27;20480;-86
2021/04/24 08:30:30;;;;;;;12.73;6.33;;;10.20;84.30;;;;;;5113310;27;20468;-87
2021/04/24 08:32:58;;;;;;;7.87;4.87;;;10.20;84.20;;;;;;5113589;27;20468;-87
2021/04/24 08:35:26;;;;;;;12.67;5.43;;;10.30;83.20;;;;;;5101482;27;20474;-87
2021/04/24 08:37:53;;;;;;;8.77;4.90;;;10.50;82.80;;;;;;5112021;27;20517;-86
2021/04/24 08:40:24;;;;;;;11.40;5.93;;;10.70;82.00;;;;;;5106693;27;21105;-87
2021/04/24 08:42:51;;;;;;;10.03;5.57;;;10.80;82.30;;;;;;5090179;28;20469;-87
2021/04/24 08:45:22;;;;;;;11.23;5.70;;;11.00;81.90;;;;;;5078054;27;20522;-87
2021/04/24 08:47:53;;;;;;;15.57;5.87;;;11.20;81.20;;;;;;5111152;27;20469;-87
2021/04/24 08:50:22;;;;;;;11.77;5.27;;;11.20;80.60;;;;;;5091467;28;20501;-87
2021/04/24 08:52:52;;;;;;;9.63;4.93;;;11.10;80.70;;;;;;5090170;28;20556;-87
2021/04/24 08:55:21;;;;;;;9.13;5.40;;;11.20;81.70;;;;;;5086472;27;20932;-86
2021/04/24 08:57:49;;;;;;;6.90;5.40;;;11.20;81.40;;;;;;5098748;27;20948;-86
2021/04/24 09:00:19;;;;;;;7.80;5.17;;;11.30;81.80;;;;;;5059515;27;20475;-86
2021/04/24 09:02:47;;;;;;;8.40;5.67;;;11.50;80.20;;;;;;5098446;27;20483;-86
2021/04/24 09:05:19;;;;;;;12.40;6.70;;;11.60;80.70;;;;;;5077634;27;20476;-87
2021/04/24 09:07:46;;;;;;;13.53;5.67;;;11.50;79.70;;;;;;5091882;27;20908;-86
2021/04/24 09:10:16;;;;;;;7.40;4.97;;;11.60;80.40;;;;;;5061036;27;20460;-86
2021/04/24 09:12:48;;;;;;;7.87;4.80;;;11.70;80.00;;;;;;5102589;27;20479;-86
2021/04/24 09:15:18;;;;;;;9.93;5.93;;;11.90;80.20;;;;;;5077543;28;20460;-86
2021/04/24 09:17:54;;;;;;;8.77;5.30;;;12.00;79.00;;;;;;5113321;27;21074;-86
2021/04/24 09:20:24;;;;;;;10.50;6.33;;;12.20;79.90;;;;;;5090990;27;20845;-86
2021/04/24 09:23:00;;;;;;;7.13;5.40;;;12.40;80.80;;;;;;5090357;27;20729;-86
2021/04/24 09:25:40;;;;;;;9.10;6.00;;;12.50;78.50;;;;;;5093433;27;20556;-86
2021/04/24 09:28:09;;;;;;;7.80;5.20;;;12.50;77.70;;;;;;5072745;27;20466;-87
2021/04/24 09:30:39;;;;;;;12.63;5.10;;;12.50;78.20;;;;;;5108900;27;21100;-87
2021/04/24 09:33:12;;;;;;;8.20;5.23;;;12.70;78.20;;;;;;5107568;27;20481;-86
2021/04/24 09:35:51;;;;;;;10.90;5.10;;;12.90;77.80;;;;;;5082063;27;20493;-87
2021/04/24 09:38:25;;;;;;;8.53;5.93;;;13.00;77.50;;;;;;5102511;27;20475;-87
2021/04/24 09:41:06;;;;;;;10.40;5.90;;;13.00;76.30;;;;;;5102752;27;20886;-87
2021/04/24 09:43:48;;;;;;;8.13;5.77;;;13.00;76.30;;;;;;5094688;27;20456;-87
2021/04/24 09:46:17;;;;;;;11.67;5.97;;;13.20;76.60;;;;;;5107230;27;20575;-87
2021/04/24 09:48:46;;;;;;;9.67;6.00;;;13.40;75.60;;;;;;5114155;27;20471;-87
2021/04/24 09:51:17;;;;;;;11.03;6.67;;;13.70;75.50;;;;;;5073618;27;20475;-87
2021/04/24 09:53:54;;;;;;;15.57;6.87;;;13.90;75.90;;;;;;5081713;27;20470;-86
2021/04/24 09:56:25;;;;;;;12.93;6.17;;;14.10;75.80;;;;;;5095477;27;20551;-87
2021/04/24 09:59:00;;;;;;;10.40;5.70;;;14.10;74.60;;;;;;5097685;27;20531;-87
2021/04/24 10:01:30;;;;;;;8.50;5.93;;;14.20;75.60;;;;;;5106494;27;20523;-89
2021/04/24 10:03:59;;;;;;;12.13;6.40;;;14.10;73.80;;;;;;5102452;27;20538;-88
2021/04/24 10:06:31;;;;;;;11.73;6.90;;;14.20;73.50;;;;;;5087619;27;20473;-88
2021/04/24 10:09:26;;;;;;;9.77;6.70;;;14.30;75.00;;;;;;5094745;27;20456;-87
2021/04/24 10:12:11;;;;;;;12.67;6.80;;;14.20;73.50;;;;;;5102002;27;20474;-91
2021/04/24 10:14:41;;;;;;;14.30;6.77;;;14.10;74.60;;;;;;5080528;27;20504;-88
2021/04/24 10:17:11;;;;;;;13.70;7.20;;;14.10;73.40;;;;;;5108381;27;20465;-87
2021/04/24 10:19:44;;;;;;;14.10;7.70;;;14.30;74.00;;;;;;5088735;27;20467;-88
2021/04/24 10:22:20;;;;;;;11.73;7.10;;;14.20;72.80;;;;;;5105876;27;20829;-90
2021/04/24 10:24:48;;;;;;;10.33;6.87;;;14.50;74.00;;;;;;5086869;27;20841;-88
2021/04/24 10:27:18;;;;;;;13.33;7.47;;;14.60;70.90;;;;;;5086838;27;20512;-89
2021/04/24 10:29:47;;;;;;;16.07;7.60;;;14.80;72.60;;;;;;5108571;27;20867;-90
2021/04/24 10:32:16;;;;;;;16.00;8.20;;;15.10;73.10;;;;;;5103642;27;20580;-89
2021/04/24 10:34:45;;;;;;;11.80;7.20;;;15.60;73.90;;;;;;5085200;27;20569;-89
2021/04/24 10:37:21;;;;;;;11.63;7.00;;;15.80;70.40;;;;;;5084261;27;20468;-90
2021/04/24 10:39:53;;;;;;;10.57;6.17;;;16.00;67.90;;;;;;5074936;27;20476;-89
2021/04/24 10:42:24;;;;;;;16.23;7.30;;;16.10;68.80;;;;;;5105888;27;20530;-89
2021/04/24 10:44:57;;;;;;;15.27;7.50;;;16.10;68.60;;;;;;5090190;27;20479;-89
2021/04/24 10:47:51;;;;;;;10.10;6.60;;;16.10;68.60;;;;;;5088583;27;22953;-89
2021/04/24 10:50:23;;;;;;;9.77;6.67;;;16.30;67.90;;;;;;5085302;27;21018;-89
2021/04/24 10:52:54;;;;;;;13.23;7.50;;;16.30;68.00;;;;;;5100359;27;20469;-89
2021/04/24 10:55:27;;;;;;;10.90;6.50;;;16.40;68.10;;;;;;5073503;27;20497;-89
2021/04/24 10:57:56;;;;;;;14.87;7.30;;;16.80;69.90;;;;;;5061561;27;20487;-89
2021/04/24 11:00:47;;;;;;;11.60;6.70;;;16.80;69.80;;;;;;5080359;27;20483;-89
2021/04/24 11:03:48;;;;;;;11.53;7.47;;;17.10;67.50;;;;;;5110968;27;20472;-89
2021/04/24 11:06:18;;;;;;;13.63;7.17;;;17.20;65.20;;;;;;5085269;27;20484;-90
2021/04/24 11:08:52;;;;;;;11.10;6.40;;;17.10;65.30;;;;;;5084640;27;20481;-89
2021/04/24 11:11:22;;;;;;;11.47;7.13;;;17.10;65.20;;;;;;5083305;27;20843;-88
2021/04/24 11:13:54;;;;;;;16.73;7.87;;;17.30;68.20;;;;;;5070561;27;20471;-88
2021/04/24 11:16:24;;;;;;;20.77;8.00;;;17.30;68.20;;;;;;5061933;28;20470;-89
2021/04/24 11:18:52;;;;;;;14.70;6.90;;;17.70;65.30;;;;;;5076983;28;20999;-89
2021/04/24 11:21:27;;;;;;;10.90;7.07;;;17.80;66.50;;;;;;5072199;28;20513;-88
2021/04/24 11:23:57;;;;;;;10.30;6.93;;;17.90;64.60;;;;;;5093852;27;20474;-89
2021/04/24 11:26:50;;;;;;;14.57;7.60;;;18.00;65.00;;;;;;5086430;27;20475;-88
2021/04/24 11:29:22;;;;;;;11.03;6.70;;;17.60;63.90;;;;;;5078180;28;20531;-88
2021/04/24 11:31:58;;;;;;;11.17;7.20;;;17.60;65.30;;;;;;5090926;28;20476;-89
2021/04/24 11:34:44;;;;;;;12.23;7.03;;;18.00;63.90;;;;;;5066398;28;20825;-89
2021/04/24 11:37:35;;;;;;;8.93;5.73;;;18.20;64.30;;;;;;5066838;28;21014;-88
2021/04/24 11:40:32;;;;;;;12.57;6.63;;;18.30;64.00;;;;;;5090131;28;20457;-88
2021/04/24 11:43:11;;;;;;;9.30;6.53;;;17.90;62.70;;;;;;5092427;27;20494;-91
2021/04/24 11:46:03;;;;;;;10.00;7.10;;;18.00;63.10;;;;;;5071115;27;20465;-88
2021/04/24 11:48:58;;;;;;;10.40;6.70;;;18.40;62.90;;;;;;5092758;28;20470;-89
2021/04/24 11:51:35;;;;;;;13.53;6.13;;;18.20;61.60;;;;;;5089261;28;20979;-87
2021/04/24 11:54:04;;;;;;;8.73;6.57;;;18.50;62.00;;;;;;5088286;27;20468;-87
2021/04/24 11:56:32;;;;;;;9.60;6.60;;;20.10;59.90;;;;;;5090927;28;20480;-86
2021/04/24 11:59:04;;;;;;;10.57;6.47;;;21.90;54.90;;;;;;5092089;27;20548;-88
2021/04/24 12:01:32;;;;;;;8.17;5.30;;;22.60;53.60;;;;;;5079585;27;20471;-88
2021/04/24 12:04:00;;;;;;;9.07;6.20;;;23.70;51.80;;;;;;5095283;27;20476;-89
2021/04/24 12:06:41;;;;;;;9.73;6.37;;;25.30;49.50;;;;;;5059601;27;20890;-89
2021/04/24 12:09:12;;;;;;;9.53;6.13;;;25.40;49.00;;;;;;5077991;27;20471;-90
2021/04/24 12:11:40;;;;;;;10.97;6.00;;;25.60;51.10;;;;;;5077052;27;20855;-90
2021/04/24 12:14:10;;;;;;;8.80;6.10;;;26.50;47.00;;;;;;5070774;28;21314;-89
2021/04/24 12:16:43;;;;;;;11.87;6.57;;;26.20;46.50;;;;;;5068055;27;21040;-90
2021/04/24 12:19:36;;;;;;;10.00;6.70;;;25.50;47.90;;;;;;5113893;27;20522;-90
2021/04/24 12:22:24;;;;;;;12.23;5.90;;;27.00;46.50;;;;;;5083482;28;20842;-90
2021/04/24 12:24:57;;;;;;;7.13;5.40;;;27.30;46.10;;;;;;5089319;27;20532;-89
2021/04/24 12:27:27;;;;;;;8.67;5.77;;;28.00;45.50;;;;;;5086159;27;20869;-89
2021/04/24 12:29:57;;;;;;;7.80;6.67;;;27.70;44.80;;;;;;5074347;27;20472;-89
2021/04/24 12:32:35;;;;;;;9.10;5.60;;;27.80;45.10;;;;;;5090150;27;20461;-90
2021/04/24 12:35:22;;;;;;;7.20;5.80;;;28.40;43.90;;;;;;5086942;27;20495;-89
2021/04/24 12:38:03;;;;;;;8.37;5.57;;;28.30;44.60;;;;;;5077295;27;20904;-89
2021/04/24 12:40:35;;;;;;;8.37;5.57;;;28.90;44.20;;;;;;5068365;27;20898;-89
2021/04/24 12:43:11;;;;;;;11.23;6.60;;;29.80;43.50;;;;;;5081249;27;20479;-90
2021/04/24 12:45:44;;;;;;;6.73;5.37;;;30.60;40.90;;;;;;5074061;27;20488;-88
2021/04/24 12:48:16;;;;;;;9.87;6.40;;;29.20;41.80;;;;;;5098821;27;20465;-89
2021/04/24 12:50:48;;;;;;;7.00;5.63;;;29.10;43.20;;;;;;5087449;28;20472;-89
2021/04/24 12:53:30;;;;;;;10.80;6.50;;;28.80;44.60;;;;;;5088105;28;20903;-88
2021/04/24 12:56:02;;;;;;;10.23;5.97;;;28.90;43.00;;;;;;5079830;27;20518;-87